UAL1887 KLAX-PHOG
Flight info
| Callsign | UAL1887 |
|---|---|
| Flight time | N/A |
| Altitude | 34000 |
| Route | SUMMR2 DINTY DUETS R576 DUSAC/N0451F360 R576 DENNS LNDHY1 |
| Aircraft | B38M/M-SDE1FGHILORVWXY/HB1 |
Departure
| Time | 2026-04-21 20:22 |
|---|---|
| Airport | Los Angeles International Airport (KLAX) |
Arrival
| Time | N/A |
|---|---|
| Airport | Kahului International Airport (PHOG) |
| Time | Latitude | Longitude | Altitude | Speed | Heading |
|---|---|---|---|---|---|
| 2026-04-21 20:01 | 33.94267 | -118.39902 | 95 ft | 0 kts | 264° |
| 2026-04-21 20:06 | 33.94267 | -118.39897 | 95 ft | 3 kts | 264° |
| 2026-04-21 20:06 | 33.94271 | -118.39865 | 96 ft | 4 kts | 255° |
| 2026-04-21 20:07 | 33.94277 | -118.39842 | 95 ft | 1 kts | 249° |
| 2026-04-21 20:07 | 33.94263 | -118.39849 | 96 ft | 4 kts | 178° |
| 2026-04-21 20:07 | 33.94239 | -118.39846 | 95 ft | 4 kts | 173° |
| 2026-04-21 20:07 | 33.94212 | -118.39842 | 95 ft | 4 kts | 173° |
| 2026-04-21 20:08 | 33.94185 | -118.39839 | 97 ft | 4 kts | 173° |
| 2026-04-21 20:08 | 33.94158 | -118.39835 | 97 ft | 4 kts | 173° |
| 2026-04-21 20:08 | 33.94146 | -118.39833 | 97 ft | 0 kts | 173° |
| 2026-04-21 20:11 | 33.94136 | -118.39832 | 98 ft | 2 kts | 173° |
| 2026-04-21 20:11 | 33.94119 | -118.39829 | 97 ft | 2 kts | 173° |
| 2026-04-21 20:12 | 33.94104 | -118.39827 | 97 ft | 2 kts | 173° |
| 2026-04-21 20:12 | 33.94093 | -118.39826 | 97 ft | 2 kts | 173° |
| 2026-04-21 20:12 | 33.94074 | -118.39825 | 95 ft | 4 kts | 181° |
| 2026-04-21 20:12 | 33.94028 | -118.39826 | 97 ft | 9 kts | 180° |
| 2026-04-21 20:13 | 33.93975 | -118.39862 | 96 ft | 10 kts | 251° |
| 2026-04-21 20:13 | 33.93967 | -118.39947 | 98 ft | 11 kts | 264° |
| 2026-04-21 20:13 | 33.93959 | -118.40047 | 96 ft | 13 kts | 263° |
| 2026-04-21 20:13 | 33.93946 | -118.40154 | 96 ft | 13 kts | 261° |
| 2026-04-21 20:14 | 33.93935 | -118.40258 | 99 ft | 12 kts | 262° |
| 2026-04-21 20:14 | 33.93926 | -118.40353 | 96 ft | 11 kts | 263° |
| 2026-04-21 20:14 | 33.93917 | -118.40441 | 96 ft | 10 kts | 263° |
| 2026-04-21 20:14 | 33.93908 | -118.40531 | 96 ft | 12 kts | 263° |
| 2026-04-21 20:15 | 33.93896 | -118.40646 | 99 ft | 16 kts | 263° |
| 2026-04-21 20:15 | 33.93882 | -118.40791 | 96 ft | 18 kts | 263° |
| 2026-04-21 20:15 | 33.93866 | -118.40935 | 97 ft | 17 kts | 262° |
| 2026-04-21 20:15 | 33.93852 | -118.41065 | 98 ft | 15 kts | 263° |
| 2026-04-21 20:16 | 33.93886 | -118.41163 | 97 ft | 13 kts | 345° |
| 2026-04-21 20:16 | 33.93975 | -118.41178 | 96 ft | 13 kts | 352° |
| 2026-04-21 20:16 | 33.94045 | -118.41219 | 96 ft | 11 kts | 290° |
| 2026-04-21 20:16 | 33.94082 | -118.41290 | 97 ft | 11 kts | 343° |
| 2026-04-21 20:17 | 33.94166 | -118.41306 | 97 ft | 16 kts | 353° |
| 2026-04-21 20:17 | 33.94309 | -118.41326 | 96 ft | 24 kts | 353° |
| 2026-04-21 20:17 | 33.94466 | -118.41350 | 96 ft | 20 kts | 353° |
| 2026-04-21 20:17 | 33.94599 | -118.41370 | 97 ft | 18 kts | 353° |
| 2026-04-21 20:18 | 33.94672 | -118.41380 | 97 ft | 14 kts | 353° |
| 2026-04-21 20:18 | 33.94783 | -118.41359 | 97 ft | 12 kts | 66° |
| 2026-04-21 20:18 | 33.94795 | -118.41260 | 96 ft | 13 kts | 83° |
| 2026-04-21 20:18 | 33.94809 | -118.41118 | 97 ft | 20 kts | 83° |
| 2026-04-21 20:19 | 33.94827 | -118.40948 | 99 ft | 20 kts | 83° |
| 2026-04-21 20:19 | 33.94844 | -118.40784 | 97 ft | 19 kts | 83° |
| 2026-04-21 20:19 | 33.94860 | -118.40633 | 97 ft | 17 kts | 82° |
| 2026-04-21 20:19 | 33.94874 | -118.40491 | 96 ft | 17 kts | 83° |
| 2026-04-21 20:20 | 33.94888 | -118.40353 | 97 ft | 17 kts | 83° |
| 2026-04-21 20:20 | 33.94902 | -118.40216 | 97 ft | 16 kts | 83° |
| 2026-04-21 20:20 | 33.94916 | -118.40081 | 98 ft | 16 kts | 83° |
| 2026-04-21 20:20 | 33.94935 | -118.39946 | 97 ft | 16 kts | 63° |
| 2026-04-21 20:21 | 33.95027 | -118.39926 | 95 ft | 15 kts | 318° |
| 2026-04-21 20:21 | 33.95033 | -118.40038 | 97 ft | 14 kts | 263° |
| 2026-04-21 20:21 | 33.94997 | -118.40389 | 100 ft | 77 kts | 262° |
| 2026-04-21 20:21 | 33.94904 | -118.41296 | 103 ft | 138 kts | 263° |
| 2026-04-21 20:22 | 33.94785 | -118.42442 | 197 ft | 172 kts | 262° |
| 2026-04-21 20:22 | 33.94472 | -118.45445 | 1730 ft | 175 kts | 259° |
| 2026-04-21 20:22 | 33.94363 | -118.46969 | 2224 ft | 195 kts | 264° |
| 2026-04-21 20:23 | 33.94301 | -118.48678 | 2707 ft | 213 kts | 263° |
| 2026-04-21 20:23 | 33.94225 | -118.50544 | 3153 ft | 232 kts | 261° |
| 2026-04-21 20:23 | 33.94074 | -118.52528 | 3613 ft | 250 kts | 261° |
| 2026-04-21 20:23 | 33.93911 | -118.54649 | 4384 ft | 254 kts | 262° |
| 2026-04-21 20:24 | 33.93749 | -118.56768 | 5360 ft | 253 kts | 262° |
| 2026-04-21 20:24 | 33.93588 | -118.58879 | 6405 ft | 250 kts | 262° |
| 2026-04-21 20:24 | 33.93428 | -118.60976 | 7229 ft | 255 kts | 262° |
| 2026-04-21 20:24 | 33.93266 | -118.63098 | 8025 ft | 257 kts | 261° |
| 2026-04-21 20:25 | 33.93099 | -118.65260 | 8915 ft | 259 kts | 261° |
| 2026-04-21 20:25 | 33.92930 | -118.67443 | 9774 ft | 263 kts | 260° |
| 2026-04-21 20:25 | 33.92757 | -118.69668 | 10440 ft | 273 kts | 260° |
| 2026-04-21 20:25 | 33.92574 | -118.72020 | 10835 ft | 292 kts | 260° |
| 2026-04-21 20:26 | 33.92380 | -118.74506 | 11275 ft | 310 kts | 261° |
| 2026-04-21 20:26 | 33.92174 | -118.77155 | 11743 ft | 321 kts | 261° |
| 2026-04-21 20:26 | 33.91965 | -118.79834 | 11864 ft | 320 kts | 261° |
| 2026-04-21 20:26 | 33.91756 | -118.82498 | 11900 ft | 319 kts | 261° |
| 2026-04-21 20:27 | 33.91788 | -118.85164 | 12373 ft | 322 kts | 268° |
| 2026-04-21 20:27 | 33.91937 | -118.89594 | 13593 ft | 322 kts | 267° |
| 2026-04-21 20:27 | 33.92083 | -118.95009 | 14886 ft | 324 kts | 266° |
| 2026-04-21 20:27 | 33.92205 | -119.00479 | 16146 ft | 329 kts | 268° |
| 2026-04-21 20:28 | 33.91494 | -119.05769 | 17299 ft | 327 kts | 251° |
| 2026-04-21 20:28 | 33.91261 | -119.11273 | 18504 ft | 335 kts | 270° |
| 2026-04-21 20:28 | 33.90433 | -119.16725 | 19478 ft | 334 kts | 247° |
| 2026-04-21 20:28 | 33.89744 | -119.21146 | 20255 ft | 344 kts | 268° |
| 2026-04-21 20:29 | 33.89631 | -119.24004 | 20702 ft | 342 kts | 259° |
| 2026-04-21 20:29 | 33.89330 | -119.26834 | 21112 ft | 345 kts | 259° |
| 2026-04-21 20:29 | 33.89020 | -119.29711 | 21581 ft | 347 kts | 259° |
| 2026-04-21 20:29 | 33.88705 | -119.32596 | 22021 ft | 349 kts | 259° |
| 2026-04-21 20:30 | 33.88386 | -119.35502 | 22458 ft | 351 kts | 259° |